Solana Beach, California
Current Conditions -  °F | °C
As of 3:55 PM on Monday 22 Dec 2014 (Local Time) from KNKX Reporting Station
Clear Clear  
Wind Chill: 67°   Ceiling: Unl
Heat Index: 67°   Visibility: 10mi
Dew Point: 53°   Wind: 5mph
Humidity: 61%   Direction: 310°NW
Pressure: 29.95"   Gusts: NA
Location:  32.98°N, 117.27°W
Report Text: KNKX 222355Z 31004KT 10SM CLR 19/12 A2995 RMK AO2 SLP138 T01940117 10244 20194 56007
Loading
Personal Weather Stations






























Interactive Weather Map New forecast layout! Learn more

10-Day Weather Forecast

Advertisements
Track Severe Weather on mobile